Time;durP1;ratioP1;P1;durP2;ratioP2;P2;SDS_P1;SDS_P2;PMS_P1;PMS_P2;Temp;Humidity;BMP_temperature;BMP_pressure;BME280_temperature;BME280_humidity;BME280_pressure;Samples;Min_cycle;Max_cycle;Signal;HPM_P1;HPM_P2
2022/12/17 13:06:54;;;;;;;92.70;29.72;;;;;;;-2.46;79.89;99179.19;1642074;87;25799;-64
2022/12/17 13:09:32;;;;;;;96.87;30.02;;;;;;;-2.43;79.79;99184.97;1642065;87;25580;-71
2022/12/17 13:12:19;;;;;;;83.27;27.20;;;;;;;-2.44;79.35;99187.86;1672741;85;25451;-69
2022/12/17 13:14:59;;;;;;;107.07;29.67;;;;;;;-2.46;79.74;99194.78;1668040;85;26175;-71
2022/12/17 13:17:45;;;;;;;90.85;30.32;;;;;;;-2.49;79.67;99193.04;1672777;85;25428;-71
2022/12/17 13:20:34;;;;;;;90.00;29.37;;;;;;;-2.51;79.72;99195.94;1672885;85;27558;-70
2022/12/17 13:23:27;;;;;;;85.67;27.07;;;;;;;-2.50;79.68;99198.11;1672507;85;25444;-71
2022/12/17 13:26:25;;;;;;;87.08;28.10;;;;;;;-2.54;79.85;99199.05;1672591;85;25448;-72
2022/12/17 13:29:00;;;;;;;73.17;25.77;;;;;;;-2.54;79.95;99205.76;1672591;85;25660;-72
2022/12/17 13:31:35;;;;;;;78.40;26.05;;;;;;;-2.53;79.86;99212.80;1672514;85;25393;-69
2022/12/17 13:34:31;;;;;;;79.07;26.70;;;;;;;-2.60;79.82;99214.66;1669038;85;27444;-69
2022/12/17 13:37:22;;;;;;;82.30;27.52;;;;;;;-2.58;80.35;99213.94;1672750;85;25771;-65
2022/12/17 13:39:57;;;;;;;80.15;27.62;;;;;;;-2.57;80.22;99219.60;1672546;85;25654;-65
2022/12/17 13:42:34;;;;;;;80.75;26.80;;;;;;;-2.59;80.24;99227.06;1671968;85;25735;-65
2022/12/17 13:45:01;;;;;;;81.90;28.17;;;;;;;-2.58;80.39;99232.72;1672650;85;25762;-65
2022/12/17 13:47:32;;;;;;;79.45;27.87;;;;;;;-2.60;80.29;99228.91;1672655;85;27411;-65
2022/12/17 13:49:59;;;;;;;;;;;;;;;-2.57;80.56;99237.88;1675116;85;25745;-65
2022/12/17 13:52:28;;;;;;;87.10;26.93;;;;;;;-2.53;80.76;99240.44;1673023;85;25451;-66
2022/12/17 13:55:09;;;;;;;77.27;26.55;;;;;;;-2.46;80.75;99247.64;1673009;85;25686;-65
2022/12/17 13:57:37;;;;;;;83.47;27.20;;;;;;;-2.47;80.47;99254.05;1673338;85;25518;-65
2022/12/17 14:00:06;;;;;;;81.60;27.37;;;;;;;-2.45;80.65;99259.50;1672735;85;27503;-65
2022/12/17 14:02:41;;;;;;;73.28;26.33;;;;;;;-2.47;80.25;99265.62;1672934;85;26086;-66
2022/12/17 14:05:05;;;;;;;;;;;;;;;-2.50;80.25;99266.55;1674094;85;25463;-65
2022/12/17 14:07:36;;;;;;;72.58;24.25;;;;;;;-2.50;80.49;99274.61;1673028;85;25536;-65
2022/12/17 14:10:06;;;;;;;79.40;26.93;;;;;;;-2.55;80.50;99273.90;1673287;85;25441;-65
2022/12/17 14:12:34;;;;;;;77.35;25.05;;;;;;;-2.55;80.43;99277.41;1672428;85;33045;-65
2022/12/17 14:15:09;;;;;;;81.65;27.42;;;;;;;-2.58;80.48;99276.50;1672688;85;25694;-65
2022/12/17 14:17:44;;;;;;;79.45;24.95;;;;;;;-2.61;80.23;99286.31;1672909;85;25688;-66
2022/12/17 14:20:33;;;;;;;73.20;23.80;;;;;;;-2.71;80.40;99285.94;1662485;85;25743;-65
2022/12/17 14:23:04;;;;;;;75.12;26.75;;;;;;;-2.74;80.59;99283.67;1661879;86;25448;-66
2022/12/17 14:25:38;;;;;;;76.50;25.85;;;;;;;-2.75;80.68;99285.52;1658914;84;28773;-66
2022/12/17 14:28:25;;;;;;;70.83;24.45;;;;;;;-2.78;80.58;99292.64;1662403;86;25711;-65
2022/12/17 14:30:55;;;;;;;78.40;22.87;;;;;;;-2.83;80.58;99298.64;1661976;86;25671;-66
2022/12/17 14:33:29;;;;;;;79.30;24.97;;;;;;;-2.85;80.56;99295.87;1661052;86;25793;-65
2022/12/17 14:36:01;;;;;;;75.20;24.35;;;;;;;-2.85;80.75;99299.35;1662312;86;25496;-65
2022/12/17 14:38:28;;;;;;;77.58;23.47;;;;;;;-2.91;80.49;99308.23;1661574;86;27381;-65
2022/12/17 14:42:24;;;;;;;76.50;24.75;;;;;;;-2.94;80.85;99312.70;1662097;86;25667;-65
2022/12/17 14:43:37;;;;;;;65.70;22.52;;;;;;;-2.98;80.78;99314.13;1658660;86;25634;-65
2022/12/17 14:46:21;;;;;;;74.55;23.87;;;;;;;-3.04;80.97;99319.81;1662219;86;25766;-66
2022/12/17 14:49:00;;;;;;;73.80;24.95;;;;;;;-3.08;81.07;99325.30;1662066;86;25740;-65
2022/12/17 14:51:39;;;;;;;70.75;23.57;;;;;;;-3.08;81.31;99327.98;1662305;86;27444;-65
2022/12/17 14:54:29;;;;;;;78.35;25.05;;;;;;;-3.14;81.13;99334.97;1661889;86;25606;-66
2022/12/17 14:57:01;;;;;;;77.62;24.30;;;;;;;-3.19;81.29;99338.80;1661989;86;25654;-65
2022/12/17 14:59:34;;;;;;;73.15;25.20;;;;;;;-3.19;81.47;99339.61;1661575;86;25781;-65
2022/12/17 15:02:13;;;;;;;134.50;51.08;;;;;;;-3.19;81.59;99345.50;1662262;86;25718;-66
2022/12/17 15:04:39;;;;;;;70.92;24.77;;;;;;;-3.20;81.69;99341.98;1661344;86;25841;-65
2022/12/17 15:07:07;;;;;;;72.75;23.52;;;;;;;-3.24;81.63;99351.48;1662243;86;25488;-66
2022/12/17 15:09:37;;;;;;;83.72;31.02;;;;;;;-3.20;81.73;99358.08;1662167;86;25743;-65
2022/12/17 15:12:05;;;;;;;88.47;31.93;;;;;;;-3.20;81.81;99367.99;1662400;86;32296;-65
2022/12/17 15:14:31;;;;;;;88.67;36.80;;;;;;;-3.25;81.59;99366.43;1662359;86;25611;-66
2022/12/17 15:16:59;;;;;;;125.27;42.13;;;;;;;-3.28;81.94;99367.14;1661981;86;27442;-65
2022/12/17 15:19:26;;;;;;;128.18;56.23;;;;;;;-3.25;81.83;99372.62;1667240;85;26255;-66
2022/12/17 15:21:52;;;;;;;91.60;32.95;;;;;;;-3.24;81.85;99380.13;1672733;85;25602;-66
2022/12/17 15:24:20;;;;;;;72.12;25.65;;;;;;;-3.20;81.92;99382.20;1672481;85;25760;-67
2022/12/17 15:26:47;;;;;;;74.55;25.48;;;;;;;-3.21;81.64;99385.92;1673919;83;25436;-67
2022/12/17 15:29:14;;;;;;;107.60;29.25;;;;;;;-3.19;81.71;99385.72;1702113;83;27932;-67
2022/12/17 15:31:40;;;;;;;135.20;43.58;;;;;;;-3.24;81.44;99382.81;1702661;83;25495;-67
2022/12/17 15:34:08;;;;;;;97.88;37.33;;;;;;;-3.25;81.46;99397.27;1699714;84;25419;-67
2022/12/17 15:36:34;;;;;;;70.45;22.00;;;;;;;-3.30;81.41;99396.53;1669643;85;27936;-67
2022/12/17 15:39:00;;;;;;;70.70;23.20;;;;;;;-3.37;81.16;99400.53;1699782;84;25640;-67
2022/12/17 15:44:12;;;;;;;69.25;21.93;;;;;;;-3.37;81.64;99414.47;1699374;84;25589;-67
2022/12/17 15:46:38;;;;;;;75.55;24.45;;;;;;;-3.39;81.41;99406.63;1669712;85;25611;-66
2022/12/17 15:49:05;;;;;;;94.42;31.85;;;;;;;-3.39;81.66;99417.34;1699612;84;25870;-66
2022/12/17 15:51:31;;;;;;;85.55;27.60;;;;;;;-3.39;81.67;99413.33;1670036;85;25652;-67
2022/12/17 15:53:58;;;;;;;157.25;42.45;;;;;;;-3.37;81.67;99417.14;1694212;84;27456;-67
2022/12/17 15:56:27;;;;;;;96.05;30.45;;;;;;;-3.38;81.70;99423.01;1698607;84;25673;-67
2022/12/17 15:58:58;;;;;;;72.27;25.12;;;;;;;-3.36;81.75;99429.50;1697285;83;25714;-67
2022/12/17 16:01:24;;;;;;;73.80;25.60;;;;;;;-3.34;81.93;99428.27;1695518;83;25748;-67
2022/12/17 16:03:51;;;;;;;93.52;31.55;;;;;;;-3.38;81.78;99428.87;1695924;84;25491;-68
2022/12/17 16:06:18;;;;;;;86.87;29.00;;;;;;;-3.38;81.86;99436.91;1695617;84;27469;-68
2022/12/17 16:08:44;;;;;;;90.45;30.20;;;;;;;-3.46;81.87;99437.41;1695454;84;25647;-68
2022/12/17 16:11:13;;;;;;;85.35;28.35;;;;;;;-3.50;81.93;99436.68;1695535;84;25488;-67
2022/12/17 16:13:40;;;;;;;85.00;31.12;;;;;;;-3.54;82.00;99434.41;1695909;83;25685;-68
2022/12/17 16:16:08;;;;;;;73.45;23.50;;;;;;;-3.57;82.10;99433.47;1695589;84;25636;-67
2022/12/17 16:18:37;;;;;;;99.65;31.70;;;;;;;-3.60;82.09;99443.78;1696041;84;28229;-67
2022/12/17 16:21:07;;;;;;;88.35;29.35;;;;;;;-3.61;82.19;99446.96;1703440;84;25424;-68
2022/12/17 16:23:34;;;;;;;91.02;29.95;;;;;;;-3.62;82.16;99456.53;1704133;84;25444;-67
2022/12/17 16:26:04;;;;;;;93.07;28.32;;;;;;;-3.61;82.24;99448.30;1703928;84;26412;-68
2022/12/17 16:28:30;;;;;;;84.37;29.07;;;;;;;-3.60;82.06;99449.94;1703842;84;25616;-68
2022/12/17 16:31:04;;;;;;;73.87;23.12;;;;;;;-3.63;81.91;99462.40;1703521;84;27454;-67
2022/12/17 16:33:34;;;;;;;155.03;44.93;;;;;;;-3.65;81.89;99468.48;1702743;84;27242;-67
2022/12/17 16:36:02;;;;;;;85.50;29.00;;;;;;;-3.67;81.94;99463.33;1703958;84;25564;-68
2022/12/17 16:38:29;;;;;;;116.00;37.55;;;;;;;-3.67;81.98;99470.53;1699951;84;26496;-67
2022/12/17 16:40:59;;;;;;;120.97;36.33;;;;;;;-3.70;81.84;99477.63;1703655;84;25497;-68
2022/12/17 16:43:27;;;;;;;108.85;33.38;;;;;;;-3.74;81.96;99473.70;1702574;84;27489;-67
2022/12/17 16:45:54;;;;;;;93.50;31.60;;;;;;;-3.78;81.89;99486.66;1703692;84;25693;-66
2022/12/17 16:48:22;;;;;;;92.72;29.07;;;;;;;-3.82;81.99;99488.08;1703477;84;25717;-67
2022/12/17 16:50:50;;;;;;;60.60;21.37;;;;;;;-3.83;82.11;99489.92;1706539;83;25798;-69
2022/12/17 16:53:18;;;;;;;74.45;23.60;;;;;;;-3.84;82.03;99487.45;1707906;83;25406;-67
2022/12/17 16:55:48;;;;;;;119.60;38.88;;;;;;;-3.84;82.21;99496.31;1701113;83;27851;-66
2022/12/17 16:58:17;;;;;;;81.63;26.62;;;;;;;-3.82;82.20;99504.99;1704620;83;27233;-67
2022/12/17 17:00:45;;;;;;;75.30;25.02;;;;;;;-3.83;81.98;99501.17;1708631;83;25748;-66
2022/12/17 17:03:11;;;;;;;62.45;21.40;;;;;;;-3.83;82.00;99511.36;1705429;83;25798;-66
2022/12/17 17:05:39;;;;;;;78.42;24.82;;;;;;;-3.87;82.03;99502.07;1703632;84;25678;-66
2022/12/17 17:08:06;;;;;;;90.87;28.38;;;;;;;-3.92;81.97;99513.37;1701865;84;27560;-67
2022/12/17 17:10:35;;;;;;;74.35;23.65;;;;;;;-3.98;82.13;99516.83;1703642;82;25743;-66
2022/12/17 17:13:03;;;;;;;105.92;35.17;;;;;;;-3.98;82.22;99518.67;1701457;84;25479;-66
2022/12/17 17:15:29;;;;;;;122.15;37.25;;;;;;;-3.99;82.32;99521.05;1703845;83;26699;-67
2022/12/17 17:17:56;;;;;;;302.82;89.03;;;;;;;-3.97;82.36;99533.20;1703761;84;25504;-67
2022/12/17 17:20:22;;;;;;;102.20;33.30;;;;;;;-3.94;82.26;99533.34;1698730;84;27463;-68
2022/12/17 17:22:49;;;;;;;80.28;25.85;;;;;;;-3.96;82.23;99534.88;1695961;84;25442;-69
2022/12/17 17:25:15;;;;;;;104.15;32.58;;;;;;;-3.99;82.23;99542.47;1695751;84;25687;-67
2022/12/17 17:27:41;;;;;;;61.75;21.10;;;;;;;-4.03;82.26;99548.22;1696009;84;25807;-66
2022/12/17 17:30:10;;;;;;;111.52;33.33;;;;;;;-4.06;82.20;99546.45;1695588;84;25421;-66
2022/12/17 17:32:37;;;;;;;122.95;36.45;;;;;;;-4.09;82.29;99550.86;1696021;84;28127;-66
2022/12/17 17:35:05;;;;;;;94.37;28.90;;;;;;;-4.10;82.56;99552.70;1695593;84;25429;-67
2022/12/17 17:37:31;;;;;;;71.05;23.00;;;;;;;-4.11;82.46;99549.72;1695908;84;25700;-67
2022/12/17 17:39:58;;;;;;;160.88;47.35;;;;;;;-4.09;82.36;99550.86;1695606;84;25799;-68
2022/12/17 17:42:24;;;;;;;154.72;42.58;;;;;;;-4.09;82.55;99563.72;1695622;84;25428;-67
2022/12/17 17:44:51;;;;;;;80.72;25.37;;;;;;;-4.07;82.51;99565.70;1695522;84;27350;-68
2022/12/17 17:47:17;;;;;;;103.25;31.20;;;;;;;-4.08;82.36;99567.23;1695557;84;25607;-69
2022/12/17 17:49:44;;;;;;;127.92;33.83;;;;;;;-4.07;82.40;99576.41;1695005;84;25711;-68
2022/12/17 17:52:10;;;;;;;139.05;34.27;;;;;;;-4.08;82.44;99580.63;1695870;84;25693;-66
2022/12/17 17:54:41;;;;;;;131.12;32.90;;;;;;;-4.13;82.25;99582.54;1695654;84;25611;-67
2022/12/17 17:57:08;;;;;;;81.15;25.25;;;;;;;-4.17;82.38;99579.41;1695722;84;27594;-67
2022/12/17 17:59:35;;;;;;;105.12;34.05;;;;;;;-4.18;82.49;99588.97;1695544;84;25414;-68
2022/12/17 18:02:02;;;;;;;83.10;25.50;;;;;;;-4.16;82.69;99598.48;1695884;84;25644;-67
2022/12/17 18:04:29;;;;;;;70.37;23.35;;;;;;;-4.16;82.56;99594.97;1695697;84;26353;-69
2022/12/17 18:06:56;;;;;;;70.67;21.68;;;;;;;-4.12;82.49;99596.77;1696067;84;25661;-66
2022/12/17 18:09:22;;;;;;;109.85;38.28;;;;;;;-4.18;82.33;99600.52;1695997;84;27474;-68
2022/12/17 18:11:48;;;;;;;50.60;16.37;;;;;;;-4.18;82.55;99609.89;1702991;83;25743;-67
2022/12/17 18:14:16;;;;;;;86.00;27.82;;;;;;;-4.17;82.47;99616.89;1710355;83;25629;-69
2022/12/17 18:16:47;;;;;;;59.48;20.05;;;;;;;-4.15;82.64;99623.39;1712798;83;26997;-66
2022/12/17 18:19:18;;;;;;;67.27;22.80;;;;;;;-4.15;82.38;99622.05;1716182;83;25742;-68
2022/12/17 18:21:45;;;;;;;84.97;28.05;;;;;;;-4.11;82.69;99623.34;1715255;83;29311;-66
2022/12/17 18:24:18;;;;;;;62.40;18.82;;;;;;;-4.09;82.38;99623.15;1715521;83;25780;-69
2022/12/17 18:26:47;;;;;;;67.80;22.25;;;;;;;-4.09;82.35;99624.48;1716112;83;25426;-66
2022/12/17 18:29:23;;;;;;;68.25;20.20;;;;;;;-4.13;82.35;99621.36;1705313;83;25794;-64
2022/12/17 18:31:50;;;;;;;69.60;22.30;;;;;;;-4.12;82.32;99638.26;1701038;84;25441;-64
2022/12/17 18:34:20;;;;;;;65.85;22.27;;;;;;;-4.11;82.64;99643.42;1715907;83;27389;-64
2022/12/17 18:36:48;;;;;;;75.67;24.50;;;;;;;-4.11;82.48;99646.59;1673189;85;25670;-65
2022/12/17 18:39:21;;;;;;;70.00;20.92;;;;;;;-4.11;82.64;99647.44;1700935;84;25409;-66
2022/12/17 18:44:41;;;;;;;69.77;22.00;;;;;;;-4.12;82.38;99654.32;1671750;85;25594;-66
2022/12/17 18:47:09;;;;;;;75.67;25.52;;;;;;;-4.09;82.59;99655.28;1680566;85;27405;-66
2022/12/17 18:49:35;;;;;;;65.85;22.67;;;;;;;-4.07;82.60;99665.27;1680124;85;25702;-66
2022/12/17 18:52:03;;;;;;;67.85;22.67;;;;;;;-4.08;82.27;99662.28;1679891;85;25708;-67
2022/12/17 18:54:32;;;;;;;74.42;21.93;;;;;;;-4.04;82.65;99667.56;1680361;85;25903;-67
2022/12/17 18:56:59;;;;;;;67.78;20.02;;;;;;;-4.01;82.56;99663.16;1680369;85;25481;-67
2022/12/17 18:59:28;;;;;;;64.95;21.77;;;;;;;-4.03;82.44;99668.70;1680230;85;27464;-66
2022/12/17 19:01:55;;;;;;;77.67;23.22;;;;;;;-4.00;82.36;99672.87;1680460;85;25601;-65
2022/12/17 19:04:23;;;;;;;80.07;21.12;;;;;;;-3.97;82.63;99672.45;1680275;85;25702;-66
2022/12/17 19:06:52;;;;;;;73.37;23.12;;;;;;;-3.99;82.02;99684.39;1680297;85;25700;-67
2022/12/17 19:09:23;;;;;;;80.70;25.95;;;;;;;-4.02;82.32;99682.94;1679599;85;25409;-66
2022/12/17 19:11:51;;;;;;;89.17;25.92;;;;;;;-4.01;82.45;99688.59;1699450;83;27390;-66
2022/12/17 19:14:20;;;;;;;82.20;23.92;;;;;;;-3.94;82.67;99690.81;1699200;84;25610;-66
2022/12/17 19:16:45;;;;;;;117.35;30.20;;;;;;;-3.90;82.53;99697.97;1669272;85;25506;-66
2022/12/17 19:19:12;;;;;;;97.65;29.57;;;;;;;-3.94;81.92;99700.72;1671580;85;25731;-66
2022/12/17 19:21:40;;;;;;;73.15;22.48;;;;;;;-3.99;82.36;99707.15;1688334;84;25587;-67
2022/12/17 19:24:11;;;;;;;66.30;22.13;;;;;;;-3.95;82.35;99709.75;1686676;84;27562;-67
2022/12/17 19:26:37;;;;;;;76.65;24.55;;;;;;;-3.95;82.30;99707.91;1686832;84;25787;-67
2022/12/17 19:29:07;;;;;;;59.93;19.65;;;;;;;-3.91;82.36;99710.52;1670766;85;25441;-67
2022/12/17 19:31:34;;;;;;;60.85;15.83;;;;;;;-3.92;81.95;99717.41;1688372;84;25878;-67
2022/12/17 19:34:04;;;;;;;55.67;17.15;;;;;;;-3.99;81.55;99725.39;1671470;85;25630;-66
2022/12/17 19:36:33;;;;;;;68.87;24.87;;;;;;;-4.02;81.54;99732.47;1671374;85;27453;-66
2022/12/17 19:39:04;;;;;;;72.05;21.93;;;;;;;-4.06;81.82;99733.34;1671399;85;25519;-65
2022/12/17 19:41:31;;;;;;;66.12;19.77;;;;;;;-4.10;81.22;99733.92;1671582;85;25603;-66
2022/12/17 19:44:01;;;;;;;50.80;18.65;;;;;;;-4.18;81.17;99741.55;1671134;85;26272;-66
2022/12/17 19:46:29;;;;;;;77.17;23.02;;;;;;;-4.29;81.33;99741.57;1671496;85;25632;-66
2022/12/17 19:48:56;;;;;;;73.15;23.87;;;;;;;-4.39;81.35;99743.70;1671167;85;27604;-66
2022/12/17 19:51:26;;;;;;;49.35;15.20;;;;;;;-4.35;82.01;99748.48;1671001;85;25659;-67
2022/12/17 19:53:54;;;;;;;60.10;18.07;;;;;;;-4.38;81.60;99748.86;1671089;85;25619;-66
2022/12/17 19:56:27;;;;;;;69.90;20.90;;;;;;;-4.38;81.83;99748.86;1671447;85;25723;-66
2022/12/17 19:59:01;;;;;;;59.58;19.27;;;;;;;-4.31;82.11;99752.47;1671272;85;25615;-68
2022/12/17 20:01:31;;;;;;;64.77;21.90;;;;;;;-4.25;81.76;99758.06;1677233;84;27257;-66
2022/12/17 20:03:58;;;;;;;136.23;33.37;;;;;;;-4.30;81.54;99762.64;1669240;85;25884;-67
2022/12/17 20:06:29;;;;;;;102.67;26.68;;;;;;;-4.35;81.20;99763.20;1671826;85;25806;-67
2022/12/17 20:08:58;;;;;;;301.27;54.63;;;;;;;-4.40;81.49;99769.65;1668551;85;25777;-65
2022/12/17 20:11:34;;;;;;;108.57;23.87;;;;;;;-4.46;81.46;99769.05;1672152;85;25631;-66
2022/12/17 20:14:09;;;;;;;99.00;23.75;;;;;;;-4.56;81.31;99772.84;1669368;85;27784;-65
2022/12/17 20:16:40;;;;;;;220.78;45.92;;;;;;;-4.60;81.45;99777.42;1668365;85;26157;-66
2022/12/17 20:19:11;;;;;;;228.35;48.13;;;;;;;-4.69;81.60;99782.85;1668669;85;25288;-65
2022/12/17 20:21:38;;;;;;;93.87;26.00;;;;;;;-4.72;81.85;99781.88;1666281;84;26553;-65
2022/12/17 20:24:06;;;;;;;66.07;20.35;;;;;;;-4.62;82.31;99789.64;1657314;85;25643;-65
2022/12/17 20:26:35;;;;;;;61.42;20.27;;;;;;;-4.53;82.32;99795.72;1652858;86;28281;-66
2022/12/17 20:29:03;;;;;;;77.65;24.75;;;;;;;-4.45;82.15;99794.79;1656564;85;25811;-66
2022/12/17 20:31:30;;;;;;;66.75;19.07;;;;;;;-4.46;81.75;99803.84;1660853;85;25802;-65
2022/12/17 20:34:02;;;;;;;83.72;27.82;;;;;;;-4.44;81.76;99802.63;1656202;85;25773;-66
2022/12/17 20:36:29;;;;;;;71.75;21.85;;;;;;;-4.41;81.74;99802.75;1665173;85;25837;-65
2022/12/17 20:38:55;;;;;;;232.50;52.62;;;;;;;-4.45;81.25;99802.31;1657738;85;27566;-67
2022/12/17 20:41:26;;;;;;;96.40;28.00;;;;;;;-4.51;81.14;99807.57;1656643;85;25798;-64
2022/12/17 20:43:55;;;;;;;62.38;20.52;;;;;;;-4.51;81.41;99808.91;1656941;85;25707;-65
2022/12/17 20:46:23;;;;;;;69.50;23.80;;;;;;;-4.49;81.56;99814.39;1659283;85;25660;-65
2022/12/17 20:48:51;;;;;;;72.78;24.35;;;;;;;-4.48;81.36;99816.06;1654634;85;25464;-65
2022/12/17 20:51:21;;;;;;;44.83;12.73;;;;;;;-4.50;81.49;99811.89;1656890;85;27474;-65
2022/12/17 20:53:48;;;;;;;83.82;22.90;;;;;;;-4.51;81.36;99819.12;1679255;85;25739;-64
2022/12/17 20:56:21;;;;;;;51.45;15.40;;;;;;;-4.54;81.60;99819.48;1681311;85;25720;-65
2022/12/17 20:58:58;;;;;;;57.73;17.15;;;;;;;-4.56;81.38;99815.66;1681833;85;25704;-65
2022/12/17 21:01:28;;;;;;;43.42;13.38;;;;;;;-4.52;81.69;99824.13;1681773;85;25672;-64
2022/12/17 21:03:56;;;;;;;40.75;13.50;;;;;;;-4.44;81.60;99825.87;1681626;85;28447;-64
2022/12/17 21:06:34;;;;;;;43.58;13.68;;;;;;;-4.46;81.43;99834.61;1681798;85;25471;-64
2022/12/17 21:09:01;;;;;;;40.12;13.03;;;;;;;-4.45;81.57;99838.44;1681665;85;25447;-66
2022/12/17 21:11:30;;;;;;;36.35;13.08;;;;;;;-4.48;81.22;99834.80;1681822;85;25693;-66
2022/12/17 21:13:57;;;;;;;40.38;13.45;;;;;;;-4.49;81.53;99841.67;1681904;85;25672;-64
2022/12/17 21:16:27;;;;;;;36.05;11.45;;;;;;;-4.52;81.61;99845.53;1681871;85;27502;-65
2022/12/17 21:18:57;;;;;;;38.38;13.40;;;;;;;-4.49;81.50;99850.51;1681776;85;25679;-66
2022/12/17 21:21:30;;;;;;;36.65;12.93;;;;;;;-4.48;81.27;99856.20;1687837;84;25916;-65
2022/12/17 21:23:57;;;;;;;43.38;13.95;;;;;;;-4.44;81.57;99860.66;1694801;84;25655;-64
2022/12/17 21:26:30;;;;;;;40.30;14.03;;;;;;;-4.39;81.53;99860.11;1694378;84;25677;-65
2022/12/17 21:28:58;;;;;;;38.92;14.38;;;;;;;-4.35;81.71;99864.09;1694823;84;27405;-64
2022/12/17 21:31:39;;;;;;;46.05;14.63;;;;;;;-4.33;81.30;99862.05;1694664;84;25657;-64
2022/12/17 21:34:07;;;;;;;;;;;;;;;-4.34;81.37;99871.94;1697173;84;25405;-64
2022/12/17 21:36:35;;;;;;;46.02;14.78;;;;;;;-4.30;81.44;99877.23;1672490;84;25909;-64
2022/12/17 21:39:03;;;;;;;34.90;13.05;;;;;;;-4.34;81.12;99876.45;1694356;84;25628;-64
2022/12/17 21:41:37;;;;;;;38.90;11.85;;;;;;;-4.41;81.24;99883.88;1694411;84;27420;-64
2022/12/17 21:44:07;;;;;;;43.52;12.98;;;;;;;-4.46;80.98;99895.63;1694335;84;25708;-64
2022/12/17 21:46:34;;;;;;;38.95;14.18;;;;;;;-4.47;81.34;99903.34;1694765;84;25497;-64
2022/12/17 21:49:03;;;;;;;42.13;13.68;;;;;;;-4.49;81.42;99900.54;1694350;84;25769;-64
2022/12/17 21:51:31;;;;;;;38.73;13.43;;;;;;;-4.51;81.42;99898.55;1694776;84;25640;-64
2022/12/17 21:54:01;;;;;;;35.13;12.35;;;;;;;-4.51;81.49;99904.73;1694228;84;27390;-64
2022/12/17 21:56:29;;;;;;;38.78;13.50;;;;;;;-4.52;81.50;99912.42;1694674;84;25647;-65
2022/12/17 21:58:59;;;;;;;32.35;12.13;;;;;;;-4.55;81.58;99906.12;1694502;84;25441;-64
2022/12/17 22:01:30;;;;;;;32.50;11.03;;;;;;;-4.58;81.74;99905.97;1694761;84;26062;-64
2022/12/17 22:03:59;;;;;;;28.27;11.35;;;;;;;-4.55;81.75;99906.94;1694770;84;25647;-64
2022/12/17 22:06:28;;;;;;;34.75;11.90;;;;;;;-4.54;81.65;99906.44;1694661;84;28032;-64
2022/12/17 22:08:58;;;;;;;37.25;13.05;;;;;;;-4.46;82.02;99911.69;1694572;84;25691;-64
2022/12/17 22:11:26;;;;;;;39.85;12.88;;;;;;;-4.46;81.80;99910.34;1694323;84;25451;-64
2022/12/17 22:14:05;;;;;;;44.90;14.10;;;;;;;-4.41;81.64;99911.98;1694679;84;25735;-64
2022/12/17 22:16:41;;;;;;;45.63;14.10;;;;;;;-4.34;81.76;99917.44;1694481;84;25680;-64
2022/12/17 22:19:11;;;;;;;45.50;13.80;;;;;;;-4.33;81.47;99916.91;1694496;84;27427;-64
2022/12/17 22:21:40;;;;;;;37.90;12.58;;;;;;;-4.35;81.66;99925.65;1694355;84;25666;-64
2022/12/17 22:24:14;;;;;;;41.33;13.98;;;;;;;-4.34;81.70;99928.14;1694682;84;25461;-63
2022/12/17 22:26:41;;;;;;;41.55;13.03;;;;;;;-4.34;81.49;99928.14;1694640;84;25660;-64
2022/12/17 22:29:08;;;;;;;39.53;13.60;;;;;;;-4.32;81.82;99925.28;1694406;84;25660;-63
2022/12/17 22:34:19;;;;;;;44.40;14.55;;;;;;;-4.30;81.31;99924.58;1694246;84;25600;-64
2022/12/17 22:37:02;;;;;;;46.42;15.30;;;;;;;-4.29;81.63;99932.42;1694277;84;25485;-64
2022/12/17 22:39:29;;;;;;;42.55;14.53;;;;;;;-4.22;81.74;99931.19;1694363;84;25822;-64
2022/12/17 22:44:40;;;;;;;38.42;12.55;;;;;;;-4.26;81.30;99931.20;1694348;84;25618;-64
2022/12/17 22:47:07;;;;;;;39.20;13.00;;;;;;;-4.23;81.33;99937.53;1694282;84;25683;-65
2022/12/17 22:49:33;;;;;;;35.50;12.82;;;;;;;-4.25;81.12;99938.25;1694275;84;25863;-64
2022/12/17 22:52:00;;;;;;;42.60;13.43;;;;;;;-4.19;81.45;99944.20;1694649;84;25774;-65
2022/12/17 22:54:26;;;;;;;38.38;12.80;;;;;;;-4.20;81.11;99948.41;1694565;84;25757;-65
2022/12/17 22:56:53;;;;;;;35.60;13.18;;;;;;;-4.22;81.22;99949.92;1694531;84;27464;-64
2022/12/17 22:59:20;;;;;;;33.50;12.05;;;;;;;-4.20;81.31;99954.56;1694225;84;25491;-65
2022/12/17 23:01:46;;;;;;;38.55;13.05;;;;;;;-4.22;80.99;99962.47;1694321;84;25442;-64
2022/12/17 23:04:14;;;;;;;42.20;13.98;;;;;;;-4.23;81.07;99963.49;1694259;84;26589;-64
2022/12/17 23:06:48;;;;;;;39.53;14.03;;;;;;;-4.22;81.29;99965.98;1694625;84;25477;-64
2022/12/17 23:09:18;;;;;;;37.45;12.20;;;;;;;-4.17;81.40;99967.59;1693461;84;25727;-64
2022/12/17 23:11:46;;;;;;;37.67;12.68;;;;;;;-4.14;81.18;99960.21;1694521;84;25947;-64
2022/12/17 23:14:14;;;;;;;41.83;15.05;;;;;;;-4.13;81.29;99967.22;1694667;84;25670;-64
2022/12/17 23:16:42;;;;;;;36.42;14.30;;;;;;;-4.05;81.54;99974.67;1694291;84;25705;-65
2022/12/17 23:19:09;;;;;;;42.67;14.15;;;;;;;-4.06;80.95;99980.22;1694257;84;25722;-64
2022/12/17 23:21:35;;;;;;;39.38;14.25;;;;;;;-4.10;80.95;99981.58;1694516;84;27403;-64
2022/12/17 23:24:02;;;;;;;45.48;14.13;;;;;;;-4.09;81.15;99985.41;1694254;84;25438;-64
2022/12/17 23:26:32;;;;;;;41.73;14.18;;;;;;;-4.08;81.28;99987.09;1694474;84;25626;-64
2022/12/17 23:29:04;;;;;;;36.68;13.22;;;;;;;-4.04;81.27;99985.70;1694316;84;43949;-63
2022/12/17 23:31:32;;;;;;;;;;;;;;;-4.09;80.56;99988.62;1697194;84;25686;-64
2022/12/17 23:33:59;;;;;;;41.65;14.15;;;;;;;-4.11;81.07;99989.30;1694689;84;28123;-64
2022/12/17 23:36:37;;;;;;;41.53;14.45;;;;;;;-4.06;81.23;99993.08;1694166;84;25433;-64
2022/12/17 23:39:13;;;;;;;43.85;15.72;;;;;;;-4.06;81.07;99990.40;1693024;84;25690;-64
2022/12/17 23:41:48;;;;;;;38.90;14.45;;;;;;;-4.02;80.66;99996.23;1694722;84;26036;-64
2022/12/17 23:44:15;;;;;;;48.90;15.60;;;;;;;-4.04;80.76;99995.58;1694382;84;25786;-64
2022/12/17 23:46:41;;;;;;;48.80;15.43;;;;;;;-4.08;80.72;100000.48;1694599;84;28173;-64
2022/12/17 23:49:08;;;;;;;52.55;17.73;;;;;;;-4.15;80.53;100006.22;1694218;84;25709;-64
2022/12/17 23:51:35;;;;;;;47.03;17.40;;;;;;;-4.20;80.76;100009.98;1694434;84;25639;-64
2022/12/17 23:54:01;;;;;;;48.15;14.70;;;;;;;-4.19;80.85;100011.13;1694211;84;25777;-64
2022/12/17 23:56:28;;;;;;;51.85;16.52;;;;;;;-4.22;80.72;100013.33;1694308;84;25433;-64
2022/12/17 23:58:58;;;;;;;54.15;17.12;;;;;;;-4.18;81.10;100010.11;1694441;84;27594;-63
